Time;durP1;ratioP1;P1;durP2;ratioP2;P2;SDS_P1;SDS_P2;PMS_P1;PMS_P2;Temp;Humidity;BMP_temperature;BMP_pressure;BME280_temperature;BME280_humidity;BME280_pressure;Samples;Min_cycle;Max_cycle;Signal;HPM_P1;HPM_P2
2022/12/03 00:02:00;;;;;;;79.45;37.95;;;-0.80;99.90;;;;;;5048716;28;20106;-49
2022/12/03 00:04:25;;;;;;;69.93;34.42;;;-0.80;99.90;;;;;;5067140;28;20489;-47
2022/12/03 00:06:51;;;;;;;74.50;37.15;;;-0.80;99.90;;;;;;5036916;28;20393;-47
2022/12/03 00:09:16;;;;;;;76.70;36.47;;;-0.80;99.90;;;;;;5048868;28;20029;-48
2022/12/03 00:11:42;;;;;;;78.13;37.50;;;-0.80;99.90;;;;;;5049647;28;20115;-45
2022/12/03 00:14:07;;;;;;;77.40;37.17;;;-0.80;99.90;;;;;;5067063;28;20044;-44
2022/12/03 00:16:33;;;;;;;86.30;39.47;;;-0.90;99.90;;;;;;5067828;28;20107;-45
2022/12/03 00:18:58;;;;;;;83.05;40.15;;;-0.90;99.90;;;;;;5048156;28;20053;-46
2022/12/03 00:21:24;;;;;;;82.97;38.17;;;-0.90;99.90;;;;;;5065365;28;20426;-47
2022/12/03 00:23:49;;;;;;;82.78;39.63;;;-1.00;99.90;;;;;;5047917;28;20041;-46
2022/12/03 00:26:15;;;;;;;75.00;35.97;;;-1.00;99.90;;;;;;5038071;28;20029;-47
2022/12/03 00:28:40;;;;;;;80.05;38.95;;;-1.00;99.90;;;;;;5048714;28;20029;-46
2022/12/03 00:31:06;;;;;;;75.40;35.72;;;-1.00;99.90;;;;;;5041118;28;20083;-46
2022/12/03 00:33:31;;;;;;;75.82;37.10;;;-0.90;99.90;;;;;;5050277;28;20041;-45
2022/12/03 00:35:57;;;;;;;76.50;37.45;;;-0.90;99.90;;;;;;5050476;28;20036;-44
2022/12/03 00:38:22;;;;;;;81.63;37.05;;;-1.00;99.90;;;;;;5067943;28;20085;-44
2022/12/03 00:40:48;;;;;;;82.10;39.17;;;-1.00;99.90;;;;;;5055167;28;20045;-43
2022/12/03 00:43:13;;;;;;;82.07;38.83;;;-1.00;99.90;;;;;;5062464;28;20100;-46
2022/12/03 00:45:39;;;;;;;83.53;40.85;;;-1.00;99.90;;;;;;5061514;28;20054;-46
2022/12/03 00:48:04;;;;;;;78.55;37.03;;;-1.00;99.90;;;;;;5051475;28;20489;-51
2022/12/03 00:50:30;;;;;;;79.10;36.47;;;-1.00;99.90;;;;;;5056257;28;20677;-46
2022/12/03 00:52:55;;;;;;;75.18;37.05;;;-0.90;99.90;;;;;;5070347;28;20042;-45
2022/12/03 00:55:21;;;;;;;77.07;36.90;;;-0.90;99.90;;;;;;5060560;28;20029;-44
2022/12/03 00:57:46;;;;;;;79.13;37.78;;;-0.90;99.90;;;;;;5051607;28;20452;-45
2022/12/03 01:00:12;;;;;;;82.88;38.00;;;-0.90;99.90;;;;;;5068142;28;20089;-46
2022/12/03 01:02:38;;;;;;;76.70;38.15;;;-1.00;99.90;;;;;;5051318;28;20064;-50
2022/12/03 01:05:05;;;;;;;83.60;36.03;;;-1.00;99.90;;;;;;5064937;28;20055;-50
2022/12/03 01:07:31;;;;;;;73.18;35.05;;;-1.00;99.90;;;;;;5051047;28;20086;-49
2022/12/03 01:09:56;;;;;;;72.88;35.50;;;-0.90;99.90;;;;;;5066870;28;20045;-46
2022/12/03 01:12:22;;;;;;;77.22;35.13;;;-0.90;99.90;;;;;;5070644;28;20032;-47
2022/12/03 01:14:47;;;;;;;75.22;36.92;;;-0.90;99.90;;;;;;5055781;28;20385;-48
2022/12/03 01:17:13;;;;;;;77.75;38.00;;;-0.90;99.90;;;;;;5070520;28;20099;-45
2022/12/03 01:19:39;;;;;;;77.88;35.58;;;-1.00;99.90;;;;;;5054257;28;20024;-46
2022/12/03 01:22:05;;;;;;;77.22;36.08;;;-0.90;99.90;;;;;;5070656;28;20070;-46
2022/12/03 01:24:31;;;;;;;78.28;37.03;;;-0.90;99.90;;;;;;5052984;28;20032;-48
2022/12/03 01:26:56;;;;;;;77.88;35.03;;;-0.90;99.90;;;;;;5070610;28;20408;-43
2022/12/03 01:29:22;;;;;;;68.32;31.45;;;-0.90;99.90;;;;;;5051628;28;20488;-47
2022/12/03 01:34:32;;;;;;;76.30;34.75;;;-0.80;99.90;;;;;;5037073;28;20120;-49
2022/12/03 01:36:58;;;;;;;77.47;35.38;;;-0.90;99.90;;;;;;5070150;28;20103;-49
2022/12/03 01:39:23;;;;;;;76.95;35.47;;;-0.90;99.90;;;;;;5051923;28;20442;-45
2022/12/03 01:41:51;;;;;;;73.40;33.42;;;-0.90;99.90;;;;;;5069939;28;20044;-46
2022/12/03 01:44:26;;;;;;;78.85;35.28;;;-0.90;99.90;;;;;;5050377;28;20116;-44
2022/12/03 01:46:54;;;;;;;74.57;36.00;;;-0.90;99.90;;;;;;5070005;28;20059;-46
2022/12/03 01:49:36;;;;;;;78.95;35.83;;;-1.00;99.90;;;;;;5050923;28;20036;-45
2022/12/03 01:52:02;;;;;;;75.28;34.10;;;-1.00;99.90;;;;;;5070292;28;20644;-46
2022/12/03 01:54:38;;;;;;;72.28;34.78;;;-1.00;99.90;;;;;;5052153;28;20032;-46
2022/12/03 01:57:04;;;;;;;69.55;34.83;;;-1.00;99.90;;;;;;5069806;28;20269;-48
2022/12/03 01:59:36;;;;;;;72.30;32.90;;;-1.00;99.90;;;;;;5048523;28;20036;-46
2022/12/03 02:02:12;;;;;;;73.03;33.58;;;-0.90;99.90;;;;;;5069172;28;20036;-47
2022/12/03 02:04:37;;;;;;;74.93;32.53;;;-0.90;99.90;;;;;;5044761;28;20059;-47
2022/12/03 02:07:17;;;;;;;67.63;29.95;;;-0.90;99.90;;;;;;5066483;28;20032;-50
2022/12/03 02:09:43;;;;;;;70.72;32.13;;;-0.90;99.90;;;;;;5047962;28;20470;-49
2022/12/03 02:12:09;;;;;;;77.18;35.92;;;-0.80;99.90;;;;;;5068595;28;20115;-49
2022/12/03 02:14:34;;;;;;;61.20;30.55;;;-0.80;99.90;;;;;;5048183;28;20035;-50
2022/12/03 02:17:00;;;;;;;64.93;32.00;;;-0.80;99.90;;;;;;5068581;28;20072;-48
2022/12/03 02:19:28;;;;;;;78.00;34.50;;;-0.80;99.90;;;;;;5048273;28;20029;-48
2022/12/03 02:22:18;;;;;;;74.10;34.38;;;-0.80;99.90;;;;;;5068746;28;20116;-47
2022/12/03 02:24:58;;;;;;;76.97;36.15;;;-0.80;99.90;;;;;;5044764;28;20029;-47
2022/12/03 02:27:24;;;;;;;76.40;34.78;;;-0.80;99.90;;;;;;5029638;28;20209;-50
2022/12/03 02:29:50;;;;;;;82.13;35.20;;;-0.90;99.90;;;;;;5048500;28;20123;-47
2022/12/03 02:32:16;;;;;;;70.00;35.33;;;-0.90;99.90;;;;;;5068431;28;20038;-49
2022/12/03 02:34:43;;;;;;;74.47;33.63;;;-0.80;99.90;;;;;;5048002;28;20040;-45
2022/12/03 02:37:23;;;;;;;73.88;33.70;;;-0.90;99.90;;;;;;5068614;28;20078;-47
2022/12/03 02:39:52;;;;;;;74.70;31.67;;;-0.80;99.90;;;;;;5045103;28;20036;-47
2022/12/03 02:42:36;;;;;;;65.82;31.10;;;-0.80;99.90;;;;;;5068857;28;20507;-50
2022/12/03 02:45:22;;;;;;;69.53;33.88;;;-0.80;99.90;;;;;;5046597;28;20045;-51
2022/12/03 02:47:55;;;;;;;55.50;25.50;;;-0.80;99.90;;;;;;5029196;28;20252;-47
2022/12/03 02:50:25;;;;;;;67.97;32.25;;;-0.80;99.90;;;;;;5067644;28;20299;-45
2022/12/03 02:52:52;;;;;;;71.85;32.80;;;-0.90;99.90;;;;;;5030008;28;20121;-46
2022/12/03 02:55:18;;;;;;;75.88;36.83;;;-0.90;99.90;;;;;;5069080;28;20090;-45
2022/12/03 02:57:46;;;;;;;80.47;37.08;;;-0.90;99.90;;;;;;5047724;28;20032;-48
2022/12/03 03:00:14;;;;;;;81.60;35.88;;;-0.90;99.90;;;;;;5068781;28;20040;-47
2022/12/03 03:02:40;;;;;;;74.53;35.15;;;-0.90;99.90;;;;;;5049066;28;20049;-46
2022/12/03 03:05:08;;;;;;;65.75;30.50;;;-0.90;99.90;;;;;;5046995;28;20086;-47
2022/12/03 03:07:34;;;;;;;76.82;34.10;;;-0.90;99.90;;;;;;5068825;28;20103;-47
2022/12/03 03:10:00;;;;;;;75.05;34.78;;;-0.80;99.90;;;;;;5047034;28;20040;-47
2022/12/03 03:12:26;;;;;;;70.68;32.20;;;-0.80;99.90;;;;;;5068191;28;20388;-47
2022/12/03 03:14:51;;;;;;;77.13;35.40;;;-0.80;99.90;;;;;;5047452;28;20033;-47
2022/12/03 03:17:17;;;;;;;77.80;36.08;;;-0.80;99.90;;;;;;5068037;28;20064;-45
2022/12/03 03:19:42;;;;;;;75.30;36.33;;;-0.80;99.90;;;;;;5047421;28;20033;-49
2022/12/03 03:22:11;;;;;;;79.95;36.55;;;-0.90;99.90;;;;;;5067663;28;20032;-50
2022/12/03 03:24:37;;;;;;;75.38;35.45;;;-0.90;99.90;;;;;;5047027;28;20492;-45
2022/12/03 03:27:04;;;;;;;75.55;35.67;;;-0.90;99.90;;;;;;5067858;28;20025;-47
2022/12/03 03:29:30;;;;;;;78.40;35.80;;;-0.90;99.90;;;;;;5046831;28;20496;-52
2022/12/03 03:31:57;;;;;;;78.90;36.00;;;-0.90;99.90;;;;;;5067972;28;20025;-46
2022/12/03 03:34:22;;;;;;;82.53;36.30;;;-0.90;99.90;;;;;;5050228;28;20465;-48
2022/12/03 03:36:48;;;;;;;66.28;30.85;;;-0.90;99.90;;;;;;5071636;28;20082;-48
2022/12/03 03:39:14;;;;;;;63.28;29.42;;;-0.80;99.90;;;;;;5051325;28;20061;-48
2022/12/03 03:41:40;;;;;;;71.43;33.50;;;-0.80;99.90;;;;;;5071635;28;20141;-48
2022/12/03 03:44:07;;;;;;;76.00;38.42;;;-0.80;99.90;;;;;;5051093;28;20408;-47
2022/12/03 03:46:33;;;;;;;72.30;34.60;;;-0.80;99.90;;;;;;5070399;28;20412;-49
2022/12/03 03:49:01;;;;;;;74.68;35.38;;;-0.80;99.90;;;;;;5061336;28;20359;-48
2022/12/03 03:51:26;;;;;;;76.18;34.63;;;-0.80;99.90;;;;;;5052676;28;20031;-47
2022/12/03 03:53:52;;;;;;;80.30;35.22;;;-0.80;99.90;;;;;;5069669;28;20024;-52
2022/12/03 03:56:20;;;;;;;74.50;34.88;;;-0.80;99.90;;;;;;5052641;28;20540;-49
2022/12/03 03:58:45;;;;;;;73.20;34.42;;;-0.80;99.90;;;;;;5069700;28;20028;-51
2022/12/03 04:01:12;;;;;;;71.28;35.05;;;-0.80;99.90;;;;;;5052664;28;20041;-48
2022/12/03 04:03:38;;;;;;;70.15;33.40;;;-0.80;99.90;;;;;;5069761;28;20396;-45
2022/12/03 04:06:04;;;;;;;77.80;37.08;;;-0.80;99.90;;;;;;5049450;28;20028;-46
2022/12/03 04:08:30;;;;;;;79.97;36.72;;;-0.80;99.90;;;;;;5032329;28;20041;-52
2022/12/03 04:13:40;;;;;;;76.72;34.92;;;-0.80;99.90;;;;;;5032038;28;20127;-47
2022/12/03 04:16:05;;;;;;;78.25;35.88;;;-0.90;99.90;;;;;;5068682;28;20461;-49
2022/12/03 04:18:43;;;;;;;79.95;35.30;;;-0.80;99.90;;;;;;5051920;28;20029;-46
2022/12/03 04:23:58;;;;;;;76.15;34.17;;;-0.80;99.90;;;;;;5052336;28;20492;-47
2022/12/03 04:29:08;;;;;;;79.07;35.40;;;-0.80;99.90;;;;;;5051885;28;20445;-45
2022/12/03 04:37:03;;;;;;;80.28;35.83;;;-0.90;99.90;;;;;;5037738;28;20045;-49
2022/12/03 04:39:28;;;;;;;81.22;37.47;;;-0.90;99.90;;;;;;5070930;28;20032;-48
2022/12/03 04:41:54;;;;;;;76.55;37.22;;;-0.90;99.90;;;;;;5050208;28;20079;-47
2022/12/03 04:44:35;;;;;;;76.53;34.90;;;-0.90;99.90;;;;;;5050991;28;20043;-51
2022/12/03 04:47:13;;;;;;;72.30;34.13;;;-0.90;99.90;;;;;;5037619;28;20112;-50
2022/12/03 04:49:41;;;;;;;82.00;35.30;;;-0.90;99.90;;;;;;5031457;28;20033;-47
2022/12/03 04:52:07;;;;;;;74.70;33.05;;;-0.90;99.90;;;;;;5060456;28;20507;-47
2022/12/03 04:54:32;;;;;;;85.07;36.35;;;-0.90;99.90;;;;;;5070510;28;20040;-49
2022/12/03 04:56:58;;;;;;;80.63;36.72;;;-0.90;99.90;;;;;;5049761;28;20100;-49
2022/12/03 04:59:23;;;;;;;75.68;34.90;;;-0.90;99.90;;;;;;5051203;28;20024;-46
2022/12/03 05:01:49;;;;;;;81.00;36.88;;;-0.90;99.90;;;;;;5060974;28;20771;-51
2022/12/03 05:04:15;;;;;;;80.28;34.88;;;-0.90;99.90;;;;;;5051169;28;20052;-49
2022/12/03 05:06:40;;;;;;;79.15;36.72;;;-0.90;99.90;;;;;;5057232;28;20049;-48
2022/12/03 05:09:06;;;;;;;81.78;38.90;;;-1.00;99.90;;;;;;5051142;28;20032;-54
2022/12/03 05:11:32;;;;;;;84.60;36.03;;;-1.00;99.90;;;;;;5064721;28;20037;-47
2022/12/03 05:13:58;;;;;;;79.00;34.28;;;-1.00;99.90;;;;;;5050955;28;20056;-53
2022/12/03 05:16:23;;;;;;;87.82;39.08;;;-1.00;99.90;;;;;;5065933;28;20025;-50
2022/12/03 05:18:48;;;;;;;87.13;36.33;;;-1.00;99.90;;;;;;5050780;28;20432;-45
2022/12/03 05:21:14;;;;;;;86.53;37.78;;;-1.00;99.90;;;;;;5066990;28;20028;-50
2022/12/03 05:23:40;;;;;;;84.25;35.28;;;-1.10;99.90;;;;;;5050809;28;20022;-48
2022/12/03 05:26:05;;;;;;;85.90;38.13;;;-1.10;99.90;;;;;;5068155;28;20020;-44
2022/12/03 05:28:31;;;;;;;86.00;36.65;;;-1.10;99.90;;;;;;5068235;28;20477;-45
2022/12/03 05:30:56;;;;;;;81.13;37.15;;;-1.10;99.90;;;;;;5070402;28;20024;-47
2022/12/03 05:33:22;;;;;;;80.40;36.83;;;-1.10;99.90;;;;;;5049446;28;20033;-44
2022/12/03 05:35:47;;;;;;;75.20;33.53;;;-1.10;99.90;;;;;;5070406;28;20488;-46
2022/12/03 05:38:13;;;;;;;86.70;38.15;;;-1.10;99.90;;;;;;5050857;28;20021;-49
2022/12/03 05:40:39;;;;;;;85.70;36.75;;;-1.10;99.90;;;;;;5053983;28;20473;-49
2022/12/03 05:43:04;;;;;;;82.28;35.65;;;-1.10;99.90;;;;;;5070423;28;20025;-45
2022/12/03 05:45:33;;;;;;;78.60;35.25;;;-1.10;99.90;;;;;;5048794;28;20036;-45
2022/12/03 05:47:59;;;;;;;86.28;38.60;;;-1.10;99.90;;;;;;5069778;28;20120;-47
2022/12/03 05:50:28;;;;;;;96.75;39.20;;;-1.10;99.90;;;;;;5048726;28;20172;-46
2022/12/03 05:52:54;;;;;;;89.25;37.47;;;-1.10;99.90;;;;;;5069671;28;20039;-51
2022/12/03 05:55:20;;;;;;;84.43;38.35;;;-1.20;99.90;;;;;;5048146;28;20220;-46
2022/12/03 05:57:46;;;;;;;84.38;37.33;;;-1.20;99.90;;;;;;5069045;28;20105;-50
2022/12/03 06:00:24;;;;;;;91.55;38.88;;;-1.20;99.90;;;;;;5048480;28;20032;-49
2022/12/03 06:02:50;;;;;;;90.22;40.05;;;-1.30;99.90;;;;;;5029650;28;20435;-46
2022/12/03 06:05:18;;;;;;;92.53;40.88;;;-1.30;99.90;;;;;;5050975;28;20154;-47
2022/12/03 06:07:44;;;;;;;79.47;36.20;;;-1.30;99.90;;;;;;5068067;28;20100;-44
2022/12/03 06:10:12;;;;;;;86.38;38.05;;;-1.30;99.90;;;;;;5069628;28;20037;-45
2022/12/03 06:12:38;;;;;;;86.53;36.92;;;-1.30;99.90;;;;;;5048663;28;20052;-50
2022/12/03 06:15:04;;;;;;;84.13;35.45;;;-1.30;99.90;;;;;;5066711;28;20059;-45
2022/12/03 06:17:29;;;;;;;92.78;39.28;;;-1.30;99.90;;;;;;5049284;28;20032;-44
2022/12/03 06:19:55;;;;;;;92.35;36.92;;;-1.30;99.90;;;;;;5048319;28;20086;-50
2022/12/03 06:22:20;;;;;;;93.13;40.00;;;-1.30;99.90;;;;;;5068341;28;20089;-44
2022/12/03 06:24:46;;;;;;;92.05;39.95;;;-1.30;99.90;;;;;;5048245;28;20048;-47
2022/12/03 06:27:12;;;;;;;95.45;40.58;;;-1.30;99.90;;;;;;5068646;28;20032;-47
2022/12/03 06:29:37;;;;;;;91.28;37.95;;;-1.40;99.90;;;;;;5047919;28;20037;-44
2022/12/03 06:32:04;;;;;;;80.90;35.88;;;-1.40;99.90;;;;;;5068706;28;20025;-49
2022/12/03 06:34:29;;;;;;;93.57;39.20;;;-1.30;99.90;;;;;;5046665;28;20500;-45
2022/12/03 06:36:55;;;;;;;104.57;41.03;;;-1.40;99.90;;;;;;5068513;28;20028;-46
2022/12/03 06:39:21;;;;;;;86.47;37.25;;;-1.40;99.90;;;;;;5047914;28;20336;-43
2022/12/03 06:41:47;;;;;;;85.57;36.80;;;-1.40;99.90;;;;;;5068409;28;20128;-44
2022/12/03 06:44:12;;;;;;;96.80;38.20;;;-1.40;99.90;;;;;;5047861;28;20066;-46
2022/12/03 06:46:38;;;;;;;93.20;40.35;;;-1.40;99.90;;;;;;5068257;28;20094;-44
2022/12/03 06:49:03;;;;;;;88.65;38.83;;;-1.40;99.90;;;;;;5040955;28;20120;-47
2022/12/03 06:51:29;;;;;;;94.32;37.05;;;-1.50;99.90;;;;;;5049623;28;20033;-46
2022/12/03 06:53:55;;;;;;;97.68;39.58;;;-1.40;99.90;;;;;;5049004;28;20028;-44
2022/12/03 06:56:20;;;;;;;91.35;38.78;;;-1.40;99.90;;;;;;5047350;28;20127;-45
2022/12/03 06:58:45;;;;;;;97.18;38.78;;;-1.40;99.90;;;;;;5050046;28;20041;-43
2022/12/03 07:01:11;;;;;;;97.90;37.22;;;-1.40;99.90;;;;;;5048145;28;20495;-49
2022/12/03 07:03:36;;;;;;;89.65;37.80;;;-1.40;99.90;;;;;;5058252;28;20115;-47
2022/12/03 07:06:02;;;;;;;89.97;37.42;;;-1.40;99.90;;;;;;5039061;28;20036;-49
2022/12/03 07:08:27;;;;;;;98.65;39.25;;;-1.40;99.90;;;;;;5049802;28;20545;-45
2022/12/03 07:10:53;;;;;;;94.00;36.17;;;-1.40;99.90;;;;;;5065130;28;20078;-49
2022/12/03 07:13:19;;;;;;;95.65;38.28;;;-1.40;99.90;;;;;;5059480;28;20032;-49
2022/12/03 07:15:45;;;;;;;95.82;39.63;;;-1.40;99.90;;;;;;5046058;28;20108;-50
2022/12/03 07:18:10;;;;;;;91.60;40.95;;;-1.40;99.90;;;;;;5063256;28;20089;-46
2022/12/03 07:20:36;;;;;;;82.50;36.88;;;-1.40;99.90;;;;;;5049012;28;20486;-51
2022/12/03 07:23:01;;;;;;;102.53;42.45;;;-1.40;99.90;;;;;;5066295;28;20040;-44
2022/12/03 07:25:27;;;;;;;104.47;40.13;;;-1.40;99.90;;;;;;5066887;28;20507;-44
2022/12/03 07:27:53;;;;;;;102.32;39.13;;;-1.40;99.90;;;;;;5056016;28;20122;-48
2022/12/03 07:30:19;;;;;;;89.45;38.33;;;-1.40;99.90;;;;;;5050783;28;20498;-48
2022/12/03 07:32:44;;;;;;;96.90;39.83;;;-1.40;99.90;;;;;;5048960;28;20158;-46
2022/12/03 07:35:10;;;;;;;104.18;42.13;;;-1.40;99.90;;;;;;5048763;28;20124;-47
2022/12/03 07:37:35;;;;;;;88.95;40.25;;;-1.40;99.90;;;;;;5058226;28;20060;-49
2022/12/03 07:40:01;;;;;;;101.15;40.53;;;-1.40;99.90;;;;;;5053401;28;20037;-48
2022/12/03 07:42:27;;;;;;;95.28;37.95;;;-1.40;99.90;;;;;;5069014;28;20032;-51
2022/12/03 07:44:52;;;;;;;99.72;41.88;;;-1.40;99.90;;;;;;5066371;28;20031;-46
2022/12/03 07:47:18;;;;;;;96.30;40.22;;;-1.40;99.90;;;;;;5049361;28;20033;-49
2022/12/03 07:49:43;;;;;;;108.72;38.40;;;-1.40;99.90;;;;;;5066060;28;20037;-48
2022/12/03 07:52:09;;;;;;;98.60;40.40;;;-1.30;99.90;;;;;;5049348;28;20039;-49
2022/12/03 07:54:35;;;;;;;91.03;38.13;;;-1.30;99.90;;;;;;5066136;28;20058;-44
2022/12/03 07:57:00;;;;;;;92.50;39.63;;;-1.30;99.90;;;;;;5056931;28;20723;-50
2022/12/03 07:59:26;;;;;;;96.70;40.03;;;-1.30;99.90;;;;;;5048553;28;20025;-48
2022/12/03 08:01:51;;;;;;;102.63;40.40;;;-1.20;99.90;;;;;;5051207;28;20071;-44
2022/12/03 08:04:17;;;;;;;101.47;41.83;;;-1.30;99.90;;;;;;5046338;28;20126;-45
2022/12/03 08:06:46;;;;;;;91.35;36.20;;;-1.30;99.90;;;;;;5062595;28;20075;-48
2022/12/03 08:09:12;;;;;;;87.20;37.83;;;-1.30;99.90;;;;;;5046465;28;20545;-44
2022/12/03 08:11:38;;;;;;;93.07;36.75;;;-1.20;99.90;;;;;;5066964;28;20021;-47
2022/12/03 08:14:12;;;;;;;91.03;35.28;;;-1.20;99.90;;;;;;5044778;28;20099;-46
2022/12/03 08:16:39;;;;;;;87.95;36.50;;;-1.20;99.90;;;;;;5052224;28;20025;-47
2022/12/03 08:19:09;;;;;;;99.90;38.72;;;-1.10;99.90;;;;;;5069404;28;20025;-47
2022/12/03 08:21:35;;;;;;;106.25;42.40;;;-1.20;99.90;;;;;;5053131;28;20028;-47
2022/12/03 08:24:17;;;;;;;102.53;40.88;;;-1.20;99.90;;;;;;5071568;28;20033;-45
2022/12/03 08:26:44;;;;;;;96.18;39.95;;;-1.20;99.90;;;;;;5055871;28;20034;-47
2022/12/03 08:29:12;;;;;;;89.30;37.40;;;-1.20;99.90;;;;;;5071493;28;20013;-45
2022/12/03 08:31:39;;;;;;;94.10;39.60;;;-1.20;99.90;;;;;;5055304;28;20032;-48
2022/12/03 08:34:30;;;;;;;98.55;39.88;;;-1.10;99.90;;;;;;5071484;28;20032;-47
2022/12/03 08:37:04;;;;;;;84.82;37.08;;;-1.10;99.90;;;;;;5045915;28;20596;-45
2022/12/03 08:39:38;;;;;;;93.68;36.58;;;-1.00;99.90;;;;;;5051408;28;20472;-46
2022/12/03 08:44:51;;;;;;;98.20;38.65;;;-1.00;99.90;;;;;;5031362;28;20056;-48
2022/12/03 08:47:22;;;;;;;98.35;38.28;;;-1.00;99.90;;;;;;5067920;28;20034;-51
2022/12/03 08:49:54;;;;;;;92.35;39.13;;;-1.00;99.90;;;;;;5051365;28;20040;-45
2022/12/03 08:52:22;;;;;;;93.95;37.90;;;-1.00;99.90;;;;;;5067729;28;20029;-47
2022/12/03 08:54:54;;;;;;;95.47;40.30;;;-1.00;99.90;;;;;;5051293;28;20556;-44
2022/12/03 08:57:27;;;;;;;95.88;37.83;;;-1.00;99.90;;;;;;5052234;28;20071;-48
2022/12/03 08:59:58;;;;;;;105.68;39.25;;;-0.90;99.90;;;;;;5050984;28;20685;-49
2022/12/03 09:02:32;;;;;;;99.25;38.00;;;-0.90;99.90;;;;;;5041348;28;20033;-43
2022/12/03 09:05:10;;;;;;;86.95;33.10;;;-0.80;99.90;;;;;;5037697;28;20036;-44
2022/12/03 09:07:36;;;;;;;86.13;36.95;;;-0.70;99.90;;;;;;5068965;28;20040;-50
2022/12/03 09:10:02;;;;;;;99.47;38.90;;;-0.60;99.90;;;;;;5051301;28;20447;-47
2022/12/03 09:12:27;;;;;;;101.03;41.28;;;-0.50;99.90;;;;;;5055577;28;20036;-48
2022/12/03 09:14:52;;;;;;;96.45;39.80;;;-0.50;99.90;;;;;;5070132;28;20025;-47
2022/12/03 09:17:18;;;;;;;93.63;36.92;;;-0.40;99.90;;;;;;5049504;28;20524;-51
2022/12/03 09:19:44;;;;;;;88.95;37.13;;;-0.40;99.90;;;;;;5069996;28;20039;-49
2022/12/03 09:22:10;;;;;;;87.22;37.38;;;-0.30;99.90;;;;;;5059188;28;20041;-51
2022/12/03 09:24:36;;;;;;;106.40;42.67;;;-0.20;99.90;;;;;;5051002;28;20060;-48
2022/12/03 09:27:01;;;;;;;94.68;38.45;;;-0.40;99.90;;;;;;5067776;28;20115;-49
2022/12/03 09:29:27;;;;;;;89.47;35.45;;;-0.50;99.90;;;;;;5051010;28;20116;-48
2022/12/03 09:31:52;;;;;;;101.38;38.13;;;-0.40;99.90;;;;;;5066543;28;20100;-51
2022/12/03 09:34:18;;;;;;;93.25;37.33;;;-0.40;99.90;;;;;;5050963;28;20033;-50
2022/12/03 09:36:43;;;;;;;96.28;38.80;;;-0.50;99.90;;;;;;5067520;28;20512;-53
2022/12/03 09:39:08;;;;;;;94.53;36.95;;;-0.40;99.90;;;;;;5070384;28;20037;-48
2022/12/03 09:41:34;;;;;;;94.13;37.17;;;-0.40;99.90;;;;;;5053895;28;20056;-49
2022/12/03 09:44:00;;;;;;;100.15;39.53;;;-0.40;99.90;;;;;;5070479;28;20044;-48
2022/12/03 09:46:27;;;;;;;106.57;40.10;;;-0.50;99.90;;;;;;5052787;28;20031;-50
2022/12/03 09:48:54;;;;;;;93.13;36.00;;;-0.50;99.90;;;;;;5070042;28;20024;-49
2022/12/03 09:51:19;;;;;;;96.40;37.60;;;-0.50;99.90;;;;;;5051670;28;20032;-48
2022/12/03 09:53:46;;;;;;;91.00;37.05;;;-0.50;99.90;;;;;;5070192;28;20038;-49
2022/12/03 09:56:18;;;;;;;85.05;35.20;;;-0.50;99.90;;;;;;5050593;28;20037;-46
2022/12/03 09:58:43;;;;;;;92.82;35.67;;;-0.50;99.90;;;;;;5069964;28;20036;-49
2022/12/03 10:01:13;;;;;;;91.55;34.78;;;-0.50;99.90;;;;;;5050261;28;20028;-48
2022/12/03 10:03:50;;;;;;;97.43;37.90;;;-0.50;99.90;;;;;;5069866;28;20041;-47
2022/12/03 10:06:19;;;;;;;89.47;35.15;;;-0.60;99.90;;;;;;5026884;28;20059;-45
2022/12/03 10:08:51;;;;;;;95.60;35.03;;;-0.50;99.90;;;;;;5069664;28;20051;-49
2022/12/03 10:11:18;;;;;;;93.20;34.53;;;-0.50;99.90;;;;;;5050422;28;20037;-45
2022/12/03 10:13:44;;;;;;;85.30;33.95;;;-0.50;99.90;;;;;;5069927;28;20050;-44
2022/12/03 10:16:14;;;;;;;98.53;36.03;;;-0.40;99.90;;;;;;5049975;28;20381;-45
2022/12/03 10:18:43;;;;;;;92.68;36.55;;;-0.40;99.90;;;;;;5069701;28;20016;-45
2022/12/03 10:21:26;;;;;;;91.78;37.10;;;-0.40;99.90;;;;;;5049273;28;20373;-45
2022/12/03 10:24:17;;;;;;;90.95;35.85;;;-0.40;99.90;;;;;;5069368;28;20040;-45
2022/12/03 10:26:44;;;;;;;94.72;35.38;;;-0.50;99.90;;;;;;5054182;28;20086;-46
2022/12/03 10:29:20;;;;;;;96.32;36.33;;;-0.40;99.90;;;;;;5069170;28;20020;-46
2022/12/03 10:31:54;;;;;;;92.25;33.40;;;-0.40;99.90;;;;;;5041247;28;20021;-49
2022/12/03 10:34:29;;;;;;;104.32;38.35;;;-0.30;99.90;;;;;;5069380;28;20512;-46
2022/12/03 10:37:12;;;;;;;92.88;34.95;;;-0.40;99.90;;;;;;5043439;28;20028;-46
2022/12/03 10:39:53;;;;;;;90.22;34.53;;;-0.30;99.90;;;;;;5029618;28;20125;-44
2022/12/03 10:42:18;;;;;;;87.95;35.67;;;-0.30;99.90;;;;;;5054681;28;20051;-46
2022/12/03 10:44:44;;;;;;;95.38;34.80;;;-0.40;99.90;;;;;;5068335;28;20028;-47
2022/12/03 10:47:12;;;;;;;82.85;31.08;;;-0.40;99.90;;;;;;5057719;28;20454;-44
2022/12/03 10:49:39;;;;;;;82.90;31.20;;;-0.30;99.90;;;;;;5049117;28;20074;-46
2022/12/03 10:52:05;;;;;;;93.15;35.72;;;-0.30;99.90;;;;;;5066254;28;20032;-44
2022/12/03 10:54:34;;;;;;;96.03;36.72;;;-0.30;99.90;;;;;;5049224;28;20025;-47
2022/12/03 10:57:00;;;;;;;89.07;35.03;;;-0.30;99.90;;;;;;5066524;28;20021;-45
2022/12/03 10:59:32;;;;;;;104.80;36.80;;;-0.30;99.90;;;;;;5049120;28;20496;-44
2022/12/03 11:01:57;;;;;;;101.75;38.33;;;-0.30;99.90;;;;;;5066429;28;20119;-46
2022/12/03 11:04:31;;;;;;;87.75;34.10;;;-0.30;99.90;;;;;;5049164;28;20525;-45
2022/12/03 11:06:56;;;;;;;86.95;33.70;;;-0.20;99.90;;;;;;5063697;28;20029;-47
2022/12/03 11:09:28;;;;;;;81.38;32.55;;;-0.30;99.90;;;;;;5049092;28;20090;-46
2022/12/03 11:11:54;;;;;;;93.72;38.38;;;-0.20;99.90;;;;;;5066415;28;20101;-45
2022/12/03 11:14:47;;;;;;;95.03;36.60;;;-0.20;99.90;;;;;;5049321;28;20556;-47
2022/12/03 11:17:33;;;;;;;104.07;34.45;;;-0.30;99.90;;;;;;5065765;28;20032;-49
2022/12/03 11:19:58;;;;;;;95.32;36.63;;;-0.30;99.90;;;;;;5028451;28;20038;-45
2022/12/03 11:22:27;;;;;;;76.65;32.72;;;-0.30;99.90;;;;;;5053392;28;20025;-49
2022/12/03 11:25:24;;;;;;;92.28;36.15;;;-0.30;99.90;;;;;;5067987;28;20507;-51
2022/12/03 11:28:12;;;;;;;97.55;35.83;;;-0.40;99.90;;;;;;5042383;28;20566;-53
2022/12/03 11:30:49;;;;;;;86.63;33.92;;;-0.40;99.90;;;;;;5067571;28;20554;-46
2022/12/03 11:33:23;;;;;;;92.22;33.97;;;-0.30;99.90;;;;;;5047075;28;20036;-49
2022/12/03 11:36:04;;;;;;;98.15;36.78;;;-0.30;99.90;;;;;;5068021;28;20039;-47
2022/12/03 11:38:39;;;;;;;90.00;35.00;;;-0.30;99.90;;;;;;5068460;28;20024;-50
2022/12/03 11:41:28;;;;;;;90.25;32.17;;;-0.30;99.90;;;;;;5054352;28;20420;-49
2022/12/03 11:43:56;;;;;;;89.63;33.38;;;-0.20;99.90;;;;;;5048334;28;20029;-47
2022/12/03 11:46:36;;;;;;;93.63;36.08;;;-0.20;99.90;;;;;;5066109;28;20036;-48
2022/12/03 11:49:23;;;;;;;85.70;34.33;;;-0.20;99.90;;;;;;5068318;28;20480;-47
2022/12/03 11:51:48;;;;;;;87.47;34.47;;;-0.30;99.90;;;;;;5040767;28;20055;-47
2022/12/03 11:54:16;;;;;;;82.05;32.50;;;-0.30;99.90;;;;;;5069407;28;20695;-46
2022/12/03 11:56:47;;;;;;;88.00;32.45;;;-0.20;99.90;;;;;;5056653;28;20086;-48
2022/12/03 11:59:15;;;;;;;82.95;32.33;;;-0.20;99.90;;;;;;5072094;28;20456;-50
2022/12/03 12:01:41;;;;;;;87.00;35.65;;;-0.20;99.90;;;;;;5056409;28;20028;-50
2022/12/03 12:04:29;;;;;;;81.13;33.10;;;-0.20;99.90;;;;;;5071881;28;20027;-45
2022/12/03 12:06:54;;;;;;;72.30;31.75;;;-0.30;99.90;;;;;;5043477;28;20073;-54
2022/12/03 12:09:54;;;;;;;83.72;32.40;;;-0.20;99.90;;;;;;5052451;28;20488;-46
2022/12/03 12:12:31;;;;;;;90.95;35.45;;;-0.20;99.90;;;;;;5057753;28;20033;-52
2022/12/03 12:14:58;;;;;;;92.95;34.83;;;-0.30;99.90;;;;;;5032007;28;20022;-46
2022/12/03 12:17:31;;;;;;;98.22;34.83;;;-0.40;99.90;;;;;;5057140;28;20032;-47
2022/12/03 12:20:25;;;;;;;112.15;39.67;;;-0.30;99.90;;;;;;5071200;28;20115;-52
2022/12/03 12:23:15;;;;;;;92.82;36.50;;;-0.40;99.90;;;;;;5049916;28;20033;-51
2022/12/03 12:25:40;;;;;;;100.18;37.58;;;-0.40;99.90;;;;;;5031688;28;20033;-48
2022/12/03 12:28:06;;;;;;;88.93;33.97;;;-0.40;99.90;;;;;;5050552;28;20028;-48
2022/12/03 12:30:32;;;;;;;89.28;34.80;;;-0.40;99.90;;;;;;5070930;28;20516;-51
2022/12/03 12:33:09;;;;;;;86.70;32.53;;;-0.30;99.90;;;;;;5050248;28;20035;-46
2022/12/03 12:35:35;;;;;;;89.28;33.95;;;-0.30;99.90;;;;;;5031580;28;20021;-48
2022/12/03 12:38:14;;;;;;;80.15;31.63;;;-0.30;99.90;;;;;;5051308;28;20071;-49
2022/12/03 12:40:44;;;;;;;78.97;31.40;;;-0.30;99.90;;;;;;5043152;28;20040;-49
2022/12/03 12:43:24;;;;;;;93.40;33.78;;;-0.40;99.90;;;;;;5051217;28;20486;-48
2022/12/03 12:45:53;;;;;;;82.65;31.27;;;-0.40;99.90;;;;;;5031455;28;20021;-52
2022/12/03 12:48:32;;;;;;;87.20;33.13;;;-0.40;99.90;;;;;;5049608;28;20040;-48
2022/12/03 12:50:59;;;;;;;86.93;33.70;;;-0.40;99.90;;;;;;5029880;28;20030;-52
2022/12/03 12:53:29;;;;;;;78.05;30.75;;;-0.40;99.90;;;;;;5071301;28;20457;-45